createdAt,value
2017-06-28T14:45:27.525Z,39.08
2017-06-28T14:46:25.655Z,37.14
2017-06-28T14:47:25.658Z,37.92
2017-06-28T14:48:25.664Z,38.5
2017-06-28T14:49:25.664Z,38.11
2017-06-28T14:50:27.274Z,38.7
2017-06-28T14:51:25.672Z,38.4
2017-06-28T14:52:25.679Z,38.7
2017-06-28T14:53:25.688Z,37.72
2017-06-28T14:54:25.706Z,37.62
2017-06-28T14:55:25.706Z,38.4
2017-06-28T14:56:25.705Z,37.16
2017-06-28T14:57:25.708Z,36.65
2017-06-28T14:58:25.715Z,36.47
2017-06-28T14:59:25.721Z,36.07
2017-06-28T15:00:25.730Z,36.65
2017-06-28T15:01:25.418Z,36.65
2017-06-28T15:02:25.740Z,36.75
2017-06-28T15:03:25.745Z,36.08
2017-06-28T15:04:25.758Z,36.38
2017-06-28T15:05:25.758Z,36.67
2017-06-28T15:06:25.765Z,36.08
2017-06-28T15:07:25.772Z,35.7
2017-06-28T15:08:25.791Z,35.6
2017-06-28T15:09:25.787Z,36.08
2017-06-28T15:10:25.799Z,35.89
2017-06-28T15:11:25.802Z,36
2017-06-28T15:12:25.809Z,36.3
2017-06-28T15:13:25.824Z,34.06
2017-06-28T15:14:25.510Z,34.35
2017-06-28T15:15:25.536Z,34.82
2017-06-28T15:16:25.838Z,34.53
2017-06-28T15:17:25.843Z,34.92
2017-06-28T15:18:25.877Z,36.16
2017-06-28T15:19:25.554Z,36.55
2017-06-28T15:20:25.864Z,37.72
2017-06-28T15:21:25.869Z,37.43
2017-06-28T15:22:25.877Z,36.85
2017-06-28T15:23:25.882Z,36.55
2017-06-28T15:24:25.938Z,36.55
2017-06-28T15:25:25.897Z,36.38
2017-06-28T15:26:25.938Z,36.38
2017-06-28T15:27:25.911Z,35.7
2017-06-28T15:28:25.917Z,36.47
2017-06-28T15:29:25.611Z,36.77
2017-06-28T15:30:25.931Z,35.89
2017-06-28T15:31:26.035Z,37.27
2017-06-28T15:32:25.943Z,38.34
2017-06-28T15:33:25.949Z,35.91
2017-06-28T15:34:25.959Z,36.47
2017-06-28T15:35:25.662Z,37.93
2017-06-28T15:36:25.973Z,36.87
2017-06-28T15:37:25.979Z,36.3
2017-06-28T15:38:25.984Z,36.2
2017-06-28T15:39:26.005Z,36.1
2017-06-28T15:40:25.699Z,36.1
2017-06-28T15:41:25.694Z,36.49
2017-06-28T15:42:26.023Z,34.84
2017-06-28T15:43:25.713Z,35.42
2017-06-28T15:44:26.099Z,35.33
2017-06-28T15:45:26.032Z,35.61
2017-06-28T15:46:27.341Z,34.94
2017-06-28T15:47:26.046Z,34.86
2017-06-28T15:48:26.075Z,33.98
2017-06-28T15:49:26.070Z,33.69
2017-06-28T15:50:26.089Z,34.08
2017-06-28T15:51:26.128Z,34.17
2017-06-28T15:52:26.086Z,33.59
2017-06-28T15:53:26.089Z,33.39
2017-06-28T15:54:26.095Z,33.59
2017-06-28T15:55:26.111Z,33.59
2017-06-28T15:56:25.796Z,34.74
2017-06-28T15:57:26.116Z,34.56
2017-06-28T15:58:25.882Z,34.08
2017-06-28T15:59:26.132Z,34.16
2017-06-28T16:00:26.135Z,34.06
2017-06-28T16:01:25.828Z,33.77
2017-06-28T16:02:26.151Z,34.16
2017-06-28T16:03:26.158Z,33.88
2017-06-28T16:04:26.173Z,33.98
2017-06-28T16:05:26.171Z,34.47
2017-06-28T16:06:26.182Z,34.47
2017-06-28T16:07:26.189Z,33.98
2017-06-28T16:08:26.199Z,33.67
2017-06-28T16:09:25.888Z,34.37
2017-06-28T16:10:26.206Z,33.69
2017-06-28T16:11:25.902Z,34.08
2017-06-28T16:12:26.227Z,34.86
2017-06-28T16:13:25.917Z,35.05
2017-06-28T16:14:26.237Z,34.95
2017-06-28T16:15:25.928Z,34.95
2017-06-28T16:16:25.937Z,34.55
2017-06-28T16:17:26.257Z,34.74
2017-06-28T16:18:26.266Z,35.05
2017-06-28T16:19:26.275Z,34.94
2017-06-28T16:20:26.298Z,35.03
2017-06-28T16:21:26.286Z,35.15
2017-06-28T16:22:26.300Z,34.37
2017-06-28T16:23:26.300Z,34.06
2017-06-28T16:24:26.307Z,34.17
2017-06-28T16:25:26.007Z,34.27
2017-06-28T16:26:26.331Z,34.06
2017-06-28T16:27:26.357Z,34.16
2017-06-28T16:28:26.337Z,34.64
2017-06-28T16:29:26.344Z,34.64
2017-06-28T16:30:26.350Z,34.84
2017-06-28T16:31:26.383Z,34.74
2017-06-28T16:32:26.384Z,34.74
2017-06-28T16:33:26.417Z,35.03
2017-06-28T16:34:26.379Z,35.13
2017-06-28T16:35:26.413Z,35.61
2017-06-28T16:36:26.424Z,35.33
2017-06-28T16:37:26.406Z,34.64
2017-06-28T16:38:26.429Z,34.94
2017-06-28T16:39:26.434Z,35.11
2017-06-28T16:40:26.432Z,34.92
2017-06-28T16:41:26.427Z,34.92
2017-06-28T16:42:26.452Z,34.82
2017-06-28T16:43:26.459Z,36.18
2017-06-28T16:44:26.155Z,36.38
2017-06-28T16:45:26.477Z,36.28
2017-06-28T16:46:26.489Z,36.08
2017-06-28T16:47:26.467Z,35.5
2017-06-28T16:48:26.493Z,35.7
2017-06-28T16:49:26.534Z,36.08
2017-06-28T16:50:26.505Z,35.7
2017-06-28T16:51:26.493Z,35.6
2017-06-28T16:52:26.501Z,35.8
2017-06-28T16:53:26.531Z,36.38
2017-06-28T16:54:26.543Z,36.38
2017-06-28T16:55:26.555Z,36.87
2017-06-28T16:56:26.528Z,35.7
2017-06-28T16:57:26.575Z,35.5
2017-06-28T16:58:26.584Z,35.89
2017-06-28T16:59:26.245Z,35.7
2017-06-28T17:00:26.596Z,35.5
2017-06-28T17:01:26.597Z,35.41
2017-06-28T17:02:26.661Z,35.7
2017-06-28T17:03:26.638Z,35.5
2017-06-28T17:04:52.264Z,35.6
2017-06-28T17:05:26.596Z,35.8
2017-06-28T17:06:26.309Z,35.88
2017-06-28T17:07:26.628Z,36.07
2017-06-28T17:08:26.608Z,36.07
2017-06-28T17:09:26.321Z,35.97
2017-06-28T17:10:26.663Z,35.68
2017-06-28T17:11:26.329Z,35.97
2017-06-28T17:12:26.662Z,35.97
2017-06-28T17:13:26.661Z,36.07
2017-06-28T17:14:26.658Z,35.97
2017-06-28T17:15:26.357Z,36.07
2017-06-28T17:16:26.685Z,36.07
2017-06-28T17:17:26.730Z,35.97
2017-06-28T17:18:26.695Z,36.85
2017-06-28T17:19:26.741Z,36.65
2017-06-28T17:20:26.383Z,37.52
2017-06-28T17:21:26.715Z,37.34
2017-06-28T17:22:26.772Z,38.01
2017-06-28T17:23:26.402Z,38.31
2017-06-28T17:24:26.431Z,37.34
2017-06-28T17:25:26.766Z,37.82
2017-06-28T17:26:26.801Z,38.01
2017-06-28T17:27:26.776Z,37.52
2017-06-28T17:28:26.795Z,37.72
2017-06-28T17:29:26.778Z,38.01
2017-06-28T17:30:26.467Z,37.52
2017-06-28T17:31:26.794Z,38.21
2017-06-28T17:32:26.826Z,38.5
2017-06-28T17:33:26.917Z,39.18
2017-06-28T17:34:26.806Z,39.06
2017-06-28T17:35:26.861Z,39.65
2017-06-28T17:36:26.822Z,39.94
2017-06-28T17:37:26.518Z,39.65
2017-06-28T17:38:26.813Z,39.45
2017-06-28T17:39:26.843Z,39.36
2017-06-28T17:40:26.838Z,40.03
2017-06-28T17:41:26.854Z,40.03
2017-06-28T17:42:26.867Z,39.75
2017-06-28T17:43:26.841Z,39.14
2017-06-28T17:44:26.894Z,39.34
2017-06-28T17:45:26.847Z,38.95
2017-06-28T17:46:26.861Z,39.06
2017-06-28T17:47:29.318Z,38.85
2017-06-28T17:48:26.870Z,38.85
2017-06-28T17:49:26.885Z,39.04
2017-06-28T17:50:26.879Z,39.14
2017-06-28T17:51:26.883Z,39.16
2017-06-28T17:52:26.900Z,39.14
2017-06-28T17:53:27.009Z,39.14
2017-06-28T17:54:27.011Z,39.34
2017-06-28T17:55:27.001Z,39.06
2017-06-28T17:56:26.973Z,40.01
2017-06-28T17:57:26.986Z,40.01
2017-06-28T17:58:27.268Z,39.92
2017-06-28T17:59:27.008Z,39.82
2017-06-28T18:00:26.764Z,39.82
2017-06-28T18:01:27.068Z,40.31
2017-06-28T18:02:27.375Z,40.99
2017-06-28T18:03:27.006Z,41.64
2017-06-28T18:04:27.015Z,41.94
2017-06-28T18:05:26.971Z,43.78
2017-06-28T18:06:26.979Z,44.07
2017-06-28T18:07:26.985Z,45.31
2017-06-28T18:08:27.059Z,45.41
2017-06-28T18:09:26.707Z,46.28
2017-06-28T18:10:27.020Z,46.67
2017-06-28T18:11:27.043Z,45.89
2017-06-28T18:12:27.033Z,47.35
2017-06-28T18:13:27.020Z,46.19
2017-06-28T18:14:27.109Z,45.87
2017-06-28T18:15:27.174Z,46.26
2017-06-28T18:16:27.063Z,46.77
2017-06-28T18:17:27.130Z,46.65
2017-06-28T18:18:27.086Z,47.03
2017-06-28T18:19:27.092Z,46.94
2017-06-28T18:20:27.129Z,47.42
2017-06-28T18:21:27.114Z,47.91
2017-06-28T18:22:27.172Z,47.69
2017-06-28T18:23:27.121Z,48.18
2017-06-28T18:24:27.113Z,48.57
2017-06-28T18:25:27.349Z,49.05
2017-06-28T18:26:27.148Z,49.34
2017-06-28T18:27:27.110Z,49.15
2017-06-28T18:28:27.267Z,48.95
2017-06-28T18:29:27.113Z,49.63
2017-06-28T18:30:26.815Z,49.41
2017-06-28T18:31:27.139Z,50.38
2017-06-28T18:32:27.127Z,49.7
2017-06-28T18:33:26.865Z,51.06
2017-06-28T18:34:26.840Z,50.77
2017-06-28T18:35:27.138Z,50.87
2017-06-28T18:36:26.844Z,50.77
2017-06-28T18:37:27.182Z,51.16
2017-06-28T18:38:27.165Z,51.06
2017-06-28T18:39:27.174Z,51.64
2017-06-28T18:40:26.874Z,51.25
2017-06-28T18:41:27.207Z,51.45
2017-06-28T18:42:27.190Z,51.54
2017-06-28T18:43:27.202Z,51.64
2017-06-28T18:44:27.211Z,52.03
2017-06-28T18:45:27.238Z,52.42
2017-06-28T18:46:27.196Z,52.32
2017-06-28T18:47:26.899Z,52.42
2017-06-28T18:48:28.453Z,52.2
2017-06-28T18:49:27.268Z,52.71
2017-06-28T18:50:26.975Z,52.78
2017-06-28T18:51:27.246Z,52.87
2017-06-28T18:52:27.240Z,52.68
2017-06-28T18:53:27.262Z,53.07
2017-06-28T18:54:27.290Z,53.07
2017-06-28T18:55:27.271Z,52.68
2017-06-28T18:56:27.278Z,52.78
2017-06-28T18:57:27.033Z,53.07
2017-06-28T18:58:27.319Z,53.36
2017-06-28T18:59:27.269Z,53.45
2017-06-28T19:00:27.298Z,53.85
2017-06-28T19:01:27.272Z,53.55
2017-06-28T19:02:27.305Z,53.55
2017-06-28T19:03:27.438Z,53.36
2017-06-28T19:04:27.324Z,53.36
2017-06-28T19:05:27.349Z,53.36
2017-06-28T19:06:27.341Z,53.55
2017-06-28T19:07:27.311Z,53.55
2017-06-28T19:08:27.308Z,53.55
2017-06-28T19:09:27.333Z,53.85
2017-06-28T19:10:27.365Z,53.94
2017-06-28T19:11:27.331Z,53.65
2017-06-28T19:12:27.354Z,53.55
2017-06-28T19:13:27.018Z,53.65
2017-06-28T19:14:27.047Z,53.85
2017-06-28T19:15:27.340Z,53.45
2017-06-28T19:16:27.371Z,53.75
2017-06-28T19:17:27.350Z,53.85
2017-06-28T19:18:27.424Z,53.75
2017-06-28T19:19:27.362Z,53.75
2017-06-28T19:20:27.399Z,53.72
2017-06-28T19:21:27.389Z,53.91
2017-06-28T19:22:27.377Z,54.3
2017-06-28T19:23:27.377Z,54.23
2017-06-28T19:24:27.384Z,54.23
2017-06-28T19:25:27.753Z,56.16
2017-06-28T19:26:27.412Z,54.03
2017-06-28T19:27:27.085Z,54.33
2017-06-28T19:28:27.403Z,55.3
2017-06-28T19:29:27.422Z,56.26
2017-06-28T19:30:27.463Z,57.81
2017-06-28T19:31:27.472Z,58.69
2017-06-28T19:32:27.109Z,58.88
2017-06-28T19:33:27.444Z,58.69
2017-06-28T19:34:27.454Z,60.52
2017-06-28T19:35:27.460Z,60.69
2017-06-28T19:36:27.462Z,61.27
2017-06-28T19:37:27.445Z,61.18
2017-06-28T19:38:28.628Z,60.21
2017-06-28T19:39:27.467Z,61.66
2017-06-28T19:40:27.483Z,63.27
2017-06-28T19:41:27.471Z,65.01
2017-06-28T19:42:27.185Z,65.47
2017-06-28T19:43:27.494Z,66.05
2017-06-28T19:44:27.166Z,68.91
2017-06-28T19:45:27.742Z,70.65
2017-06-28T19:46:27.488Z,72.58
2017-06-28T19:47:27.492Z,73.13
2017-06-28T19:48:27.501Z,74.38
2017-06-28T19:49:29.479Z,75.74
2017-06-28T19:50:27.524Z,76.28
2017-06-28T19:51:27.200Z,77.01
2017-06-28T19:52:27.513Z,79.97
2017-06-28T19:53:27.525Z,82.43
2017-06-28T19:54:27.530Z,85.67
2017-06-28T19:55:27.527Z,87.5
2017-06-28T19:56:27.532Z,89
2017-06-28T19:57:27.222Z,91.84
2017-06-28T19:58:27.544Z,93.48
2017-06-28T19:59:27.549Z,96.22
2017-06-28T20:00:27.551Z,97.57
2017-06-28T20:01:27.551Z,99.99
2017-06-28T20:02:27.554Z,99.99
2017-06-28T20:03:27.556Z,99.99
2017-06-28T20:04:27.610Z,99.99
2017-06-28T20:05:27.568Z,99.99
2017-06-28T20:06:27.270Z,99.99
2017-06-28T20:07:27.568Z,99.99
2017-06-28T20:08:27.609Z,99.99
2017-06-28T20:09:27.606Z,99.99
2017-06-28T20:10:27.577Z,99.99
2017-06-28T20:11:27.582Z,99.99
2017-06-28T20:12:27.678Z,99.99
2017-06-28T20:13:27.628Z,99.99
2017-06-28T20:14:27.592Z,99.99
2017-06-28T20:15:27.637Z,99.99
2017-06-28T20:16:27.596Z,99.99
2017-06-28T20:17:27.623Z,99.99
2017-06-28T20:18:27.605Z,99.99
2017-06-28T20:19:32.008Z,99.99
2017-06-28T20:20:27.653Z,99.99
2017-06-28T20:21:27.625Z,99.99
2017-06-28T20:22:27.661Z,99.99
2017-06-28T20:23:27.306Z,99.99
2017-06-28T20:24:27.304Z,99.99
2017-06-28T20:25:27.620Z,99.99
2017-06-28T20:26:27.325Z,99.99
2017-06-28T20:27:27.349Z,99.99
2017-06-28T20:28:27.641Z,99.99
2017-06-28T20:29:27.635Z,99.99
2017-06-28T20:30:27.676Z,99.99
2017-06-28T20:31:27.641Z,99.99
2017-06-28T20:32:27.643Z,99.99
2017-06-28T20:33:27.336Z,99.99
2017-06-28T20:34:27.653Z,99.99
2017-06-28T20:35:27.650Z,99.99
2017-06-28T20:36:27.657Z,99.99
2017-06-28T20:37:27.657Z,99.99
2017-06-28T20:38:27.676Z,99.99
2017-06-28T20:39:27.664Z,99.99
2017-06-28T20:40:27.667Z,99.99
2017-06-28T20:41:27.669Z,99.99
2017-06-28T20:42:27.677Z,99.99
2017-06-28T20:43:27.377Z,99.99
2017-06-28T20:44:27.744Z,99.99
2017-06-28T20:45:27.371Z,99.99
2017-06-28T20:46:27.685Z,99.99
2017-06-28T20:47:27.689Z,99.99
2017-06-28T20:48:27.692Z,99.99
2017-06-28T20:49:27.703Z,99.99
2017-06-28T20:50:27.698Z,99.99
2017-06-28T20:51:27.699Z,99.99
2017-06-28T20:52:27.704Z,99.99
2017-06-28T20:53:27.710Z,99.99
2017-06-28T20:54:27.708Z,99.99
2017-06-28T20:55:27.409Z,99.99
2017-06-28T20:56:27.718Z,99.99
